Time,TemperatureF,DewpointF,PressureIn,WindDirection,WindDirectionDegrees,WindSpeedMPH,WindSpeedGustMPH,Humidity,HourlyPrecipIn,Conditions,Clouds,dailyrainin,SolarRadiationWatts/m^2,SoftwareType,DateUTC
2013-12-01 00:06:00,30.0,23.0,30.64,East,84,0.0,1.0,76,0.00,,,0.00,0,weatherlink.com 1.10,2013-12-01 07:06:00,
2013-12-01 00:21:00,29.8,23.0,30.64,East,84,0.0,2.0,76,0.00,,,0.00,0,weatherlink.com 1.10,2013-12-01 07:21:00,
2013-12-01 00:36:00,29.4,23.0,30.64,East,84,0.0,0.0,77,0.00,,,0.00,0,weatherlink.com 1.10,2013-12-01 07:36:00,
2013-12-01 00:52:00,29.0,23.0,30.63,East,84,0.0,0.0,77,0.00,,,0.00,0,weatherlink.com 1.10,2013-12-01 07:52:00,
2013-12-01 01:06:00,28.4,22.0,30.64,East,84,0.0,1.0,78,0.00,,,0.00,0,weatherlink.com 1.10,2013-12-01 08:06:00,
2013-12-01 01:22:00,28.3,22.0,30.63,East,83,0.0,0.0,78,0.00,,,0.00,0,weatherlink.com 1.10,2013-12-01 08:22:00,
2013-12-01 01:37:00,28.2,22.0,30.64,East,83,0.0,0.0,77,0.00,,,0.00,0,weatherlink.com 1.10,2013-12-01 08:37:00,
2013-12-01 01:52:00,28.1,22.0,30.64,East,83,0.0,0.0,77,0.00,,,0.00,0,weatherlink.com 1.10,2013-12-01 08:52:00,
2013-12-01 02:07:00,28.2,22.0,30.64,East,84,0.0,1.0,76,0.00,,,0.00,0,weatherlink.com 1.10,2013-12-01 09:07:00,
2013-12-01 02:22:00,27.4,21.0,30.64,East,83,0.0,0.0,76,0.00,,,0.00,0,weatherlink.com 1.10,2013-12-01 09:22:00,
2013-12-01 02:37:00,27.2,20.0,30.64,East,82,0.0,0.0,75,0.00,,,0.00,0,weatherlink.com 1.10,2013-12-01 09:37:00,
2013-12-01 02:52:00,27.4,19.0,30.64,East,92,0.0,2.0,72,0.00,,,0.00,0,weatherlink.com 1.10,2013-12-01 09:52:00,
2013-12-01 03:07:00,27.7,19.0,30.64,East,92,0.0,1.0,70,0.00,,,0.00,0,weatherlink.com 1.10,2013-12-01 10:07:00,
2013-12-01 03:22:00,27.9,19.0,30.62,SW,232,0.0,2.0,70,0.00,,,0.00,0,weatherlink.com 1.10,2013-12-01 10:22:00,
2013-12-01 03:37:00,27.4,19.0,30.62,South,183,0.0,2.0,70,0.00,,,0.00,0,weatherlink.com 1.10,2013-12-01 10:37:00,
2013-12-01 03:52:00,27.3,19.0,30.62,South,183,0.0,1.0,70,0.00,,,0.00,0,weatherlink.com 1.10,2013-12-01 10:52:00,
2013-12-01 04:07:00,26.7,18.0,30.62,South,183,0.0,0.0,71,0.00,,,0.00,0,weatherlink.com 1.10,2013-12-01 11:07:00,
2013-12-01 04:22:00,26.9,18.0,30.62,South,182,0.0,1.0,70,0.00,,,0.00,0,weatherlink.com 1.10,2013-12-01 11:22:00,
2013-12-01 04:37:00,26.7,18.0,30.62,South,182,0.0,0.0,71,0.00,,,0.00,0,weatherlink.com 1.10,2013-12-01 11:37:00,
2013-12-01 04:52:00,27.4,18.0,30.62,WSW,251,0.0,2.0,69,0.00,,,0.00,0,weatherlink.com 1.10,2013-12-01 11:52:00,
2013-12-01 05:07:00,28.0,19.0,30.62,WNW,290,0.0,3.0,68,0.00,,,0.00,0,weatherlink.com 1.10,2013-12-01 12:07:00,
2013-12-01 05:22:00,27.6,19.0,30.63,SSE,164,0.0,3.0,69,0.00,,,0.00,0,weatherlink.com 1.10,2013-12-01 12:22:00,
2013-12-01 05:37:00,27.8,19.0,30.63,South,189,0.0,3.0,70,0.00,,,0.00,0,weatherlink.com 1.10,2013-12-01 12:37:00,
2013-12-01 05:52:00,28.4,19.0,30.62,SE,130,1.0,2.0,69,0.00,,,0.00,0,weatherlink.com 1.10,2013-12-01 12:52:00,
2013-12-01 06:07:00,28.3,19.0,30.63,SW,229,0.0,1.0,69,0.00,,,0.00,0,weatherlink.com 1.10,2013-12-01 13:07:00,
2013-12-01 06:22:00,28.1,19.0,30.63,ENE,70,0.0,2.0,70,0.00,,,0.00,0,weatherlink.com 1.10,2013-12-01 13:22:00,
2013-12-01 06:37:00,27.8,19.0,30.64,NE,51,0.0,1.0,70,0.00,,,0.00,0,weatherlink.com 1.10,2013-12-01 13:37:00,
2013-12-01 06:52:00,27.8,19.0,30.65,East,79,0.0,2.0,70,0.00,,,0.00,0,weatherlink.com 1.10,2013-12-01 13:52:00,
2013-12-01 07:07:00,27.7,19.0,30.65,East,95,0.0,1.0,70,0.00,,,0.00,5,weatherlink.com 1.10,2013-12-01 14:07:00,
2013-12-01 07:22:00,28.8,19.0,30.66,SSW,200,0.0,2.0,67,0.00,,,0.00,21,weatherlink.com 1.10,2013-12-01 14:22:00,
2013-12-01 07:37:00,30.1,19.0,30.66,SE,134,1.0,3.0,64,0.00,,,0.00,40,weatherlink.com 1.10,2013-12-01 14:37:00,
2013-12-01 07:52:00,30.7,19.0,30.66,SSE,150,2.0,4.0,61,0.00,,,0.00,49,weatherlink.com 1.10,2013-12-01 14:52:00,
2013-12-01 08:07:00,30.7,19.0,30.66,South,191,2.0,4.0,61,0.00,,,0.00,70,weatherlink.com 1.10,2013-12-01 15:07:00,
2013-12-01 08:22:00,31.1,19.0,30.66,South,191,0.0,1.0,60,0.00,,,0.00,63,weatherlink.com 1.10,2013-12-01 15:22:00,
2013-12-01 08:37:00,30.8,19.0,30.66,SW,236,2.0,3.0,63,0.00,,,0.00,47,weatherlink.com 1.10,2013-12-01 15:37:00,
2013-12-01 08:52:00,30.4,19.0,30.65,WSW,238,2.0,4.0,64,0.00,,,0.00,42,weatherlink.com 1.10,2013-12-01 15:52:00,
2013-12-01 09:07:00,30.8,20.0,30.64,WSW,253,3.0,5.0,64,0.00,,,0.00,58,weatherlink.com 1.10,2013-12-01 16:07:00,
2013-12-01 09:22:00,31.2,19.0,30.65,SW,235,0.0,4.0,62,0.00,,,0.00,47,weatherlink.com 1.10,2013-12-01 16:22:00,
2013-12-01 09:37:00,31.6,20.0,30.65,SW,234,0.0,5.0,62,0.00,,,0.00,58,weatherlink.com 1.10,2013-12-01 16:37:00,
2013-12-01 09:52:00,32.5,20.0,30.64,SW,229,0.0,4.0,60,0.00,,,0.00,65,weatherlink.com 1.10,2013-12-01 16:52:00,
2013-12-01 10:07:00,33.5,20.0,30.64,SW,227,1.0,5.0,57,0.00,,,0.00,70,weatherlink.com 1.10,2013-12-01 17:07:00,
2013-12-01 10:23:00,34.4,21.0,30.64,SW,226,1.0,9.0,58,0.00,,,0.00,343,weatherlink.com 1.10,2013-12-01 17:23:00,
2013-12-01 10:38:00,34.5,19.0,30.64,WSW,253,2.0,6.0,53,0.00,,,0.00,192,weatherlink.com 1.10,2013-12-01 17:38:00,
2013-12-01 10:53:00,34.8,19.0,30.64,SW,214,5.0,8.0,53,0.00,,,0.00,445,weatherlink.com 1.10,2013-12-01 17:53:00,
2013-12-01 11:08:00,35.0,18.0,30.63,SW,227,3.0,6.0,51,0.00,,,0.00,362,weatherlink.com 1.10,2013-12-01 18:08:00,
2013-12-01 11:23:00,35.7,19.0,30.64,SW,215,5.0,5.0,51,0.00,,,0.00,350,weatherlink.com 1.10,2013-12-01 18:23:00,
2013-12-01 11:38:00,37.2,18.0,30.63,WSW,251,2.0,5.0,46,0.00,,,0.00,480,weatherlink.com 1.10,2013-12-01 18:38:00,
2013-12-01 11:53:00,37.5,18.0,30.63,WSW,241,2.0,4.0,46,0.00,,,0.00,385,weatherlink.com 1.10,2013-12-01 18:53:00,
2013-12-01 12:08:00,36.8,17.0,30.62,SW,227,2.0,6.0,44,0.00,,,0.00,452,weatherlink.com 1.10,2013-12-01 19:08:00,
2013-12-01 12:23:00,36.6,17.0,30.61,SW,232,4.0,7.0,45,0.00,,,0.00,582,weatherlink.com 1.10,2013-12-01 19:23:00,
2013-12-01 12:38:00,36.4,18.0,30.60,SW,228,3.0,6.0,47,0.00,,,0.00,490,weatherlink.com 1.10,2013-12-01 19:38:00,
2013-12-01 12:53:00,37.1,18.0,30.60,WNW,282,3.0,6.0,47,0.00,,,0.00,120,weatherlink.com 1.10,2013-12-01 19:53:00,
2013-12-01 13:08:00,37.4,19.0,30.60,WNW,294,1.0,9.0,47,0.00,,,0.00,67,weatherlink.com 1.10,2013-12-01 20:08:00,
2013-12-01 13:23:00,37.3,18.0,30.59,WSW,256,1.0,6.0,45,0.00,,,0.00,69,weatherlink.com 1.10,2013-12-01 20:23:00,
2013-12-01 13:38:00,37.5,20.0,30.58,WSW,257,2.0,6.0,49,0.00,,,0.00,123,weatherlink.com 1.10,2013-12-01 20:38:00,
2013-12-01 13:53:00,36.5,18.0,30.58,North,360,1.0,6.0,48,0.00,,,0.00,125,weatherlink.com 1.10,2013-12-01 20:53:00,
2013-12-01 14:08:00,36.0,19.0,30.58,WNW,285,3.0,6.0,51,0.00,,,0.00,100,weatherlink.com 1.10,2013-12-01 21:08:00,
2013-12-01 14:23:00,35.8,19.0,30.58,SW,224,5.0,6.0,51,0.00,,,0.00,102,weatherlink.com 1.10,2013-12-01 21:23:00,
2013-12-01 14:38:00,35.7,20.0,30.59,WNW,298,1.0,7.0,53,0.00,,,0.00,105,weatherlink.com 1.10,2013-12-01 21:38:00,
2013-12-01 14:53:00,35.7,19.0,30.59,West,263,6.0,9.0,52,0.00,,,0.00,100,weatherlink.com 1.10,2013-12-01 21:53:00,
2013-12-01 15:08:00,35.2,21.0,30.59,WSW,249,2.0,6.0,56,0.00,,,0.00,88,weatherlink.com 1.10,2013-12-01 22:08:00,
2013-12-01 15:23:00,34.7,19.0,30.59,SW,225,2.0,6.0,53,0.00,,,0.00,62,weatherlink.com 1.10,2013-12-01 22:23:00,
2013-12-01 15:38:00,34.0,20.0,30.59,West,267,0.0,5.0,56,0.00,,,0.00,44,weatherlink.com 1.10,2013-12-01 22:38:00,
2013-12-01 15:53:00,33.2,21.0,30.59,NW,304,0.0,3.0,60,0.00,,,0.00,32,weatherlink.com 1.10,2013-12-01 22:53:00,
2013-12-01 16:08:00,31.6,21.0,30.59,West,261,0.0,1.0,64,0.00,,,0.00,21,weatherlink.com 1.10,2013-12-01 23:08:00,
2013-12-01 16:23:00,30.6,20.0,30.59,West,261,0.0,1.0,66,0.00,,,0.00,14,weatherlink.com 1.10,2013-12-01 23:23:00,
2013-12-01 16:38:00,30.1,21.0,30.59,West,261,0.0,1.0,68,0.00,,,0.00,5,weatherlink.com 1.10,2013-12-01 23:38:00,
2013-12-01 16:53:00,28.8,20.0,30.59,West,261,0.0,1.0,71,0.00,,,0.00,0,weatherlink.com 1.10,2013-12-01 23:53:00,
2013-12-01 17:08:00,28.4,20.0,30.59,WSW,258,0.0,1.0,72,0.00,,,0.00,0,weatherlink.com 1.10,2013-12-02 00:08:00,
2013-12-01 17:23:00,28.0,20.0,30.59,WSW,257,0.0,1.0,72,0.00,,,0.00,0,weatherlink.com 1.10,2013-12-02 00:23:00,
2013-12-01 17:38:00,27.9,20.0,30.60,West,265,0.0,2.0,72,0.00,,,0.00,0,weatherlink.com 1.10,2013-12-02 00:38:00,
2013-12-01 17:53:00,27.5,20.0,30.59,SSW,205,0.0,0.0,72,0.00,,,0.00,0,weatherlink.com 1.10,2013-12-02 00:53:00,
2013-12-01 18:08:00,27.8,18.0,30.59,WNW,292,0.0,3.0,68,0.00,,,0.00,0,weatherlink.com 1.10,2013-12-02 01:08:00,
2013-12-01 18:23:00,28.1,18.0,30.60,SSW,210,0.0,3.0,66,0.00,,,0.00,0,weatherlink.com 1.10,2013-12-02 01:23:00,
2013-12-01 18:38:00,27.0,17.0,30.59,SSW,210,0.0,1.0,67,0.00,,,0.00,0,weatherlink.com 1.10,2013-12-02 01:38:00,
2013-12-01 18:53:00,27.5,17.0,30.59,SE,144,1.0,3.0,64,0.00,,,0.00,0,weatherlink.com 1.10,2013-12-02 01:53:00,
2013-12-01 19:08:00,27.2,17.0,30.59,WNW,296,0.0,7.0,65,0.00,,,0.00,0,weatherlink.com 1.10,2013-12-02 02:08:00,
2013-12-01 19:23:00,26.5,16.0,30.58,WSW,249,0.0,3.0,65,0.00,,,0.00,0,weatherlink.com 1.10,2013-12-02 02:23:00,
2013-12-01 19:38:00,28.0,16.0,30.58,SSE,163,0.0,3.0,62,0.00,,,0.00,0,weatherlink.com 1.10,2013-12-02 02:38:00,
2013-12-01 19:53:00,28.0,16.0,30.58,SSW,208,1.0,4.0,61,0.00,,,0.00,0,weatherlink.com 1.10,2013-12-02 02:53:00,
2013-12-01 20:08:00,28.5,16.0,30.58,South,189,2.0,6.0,61,0.00,,,0.00,0,weatherlink.com 1.10,2013-12-02 03:08:00,
2013-12-01 20:23:00,28.2,16.0,30.58,WSW,243,2.0,5.0,61,0.00,,,0.00,0,weatherlink.com 1.10,2013-12-02 03:23:00,
2013-12-01 20:38:00,28.6,16.0,30.57,SE,136,5.0,5.0,60,0.00,,,0.00,0,weatherlink.com 1.10,2013-12-02 03:38:00,
2013-12-01 20:53:00,28.5,16.0,30.57,NW,312,0.0,5.0,60,0.00,,,0.00,0,weatherlink.com 1.10,2013-12-02 03:53:00,
2013-12-01 21:08:00,28.3,16.0,30.57,SE,129,0.0,3.0,60,0.00,,,0.00,0,weatherlink.com 1.10,2013-12-02 04:08:00,
2013-12-01 21:23:00,27.9,16.0,30.56,WSW,244,0.0,4.0,62,0.00,,,0.00,0,weatherlink.com 1.10,2013-12-02 04:23:00,
2013-12-01 21:38:00,27.6,16.0,30.57,SE,130,1.0,4.0,63,0.00,,,0.00,0,weatherlink.com 1.10,2013-12-02 04:38:00,
2013-12-01 21:53:00,28.4,16.0,30.57,South,189,0.0,6.0,61,0.00,,,0.00,0,weatherlink.com 1.10,2013-12-02 04:53:00,
2013-12-01 22:08:00,28.3,16.0,30.57,SSW,213,3.0,4.0,61,0.00,,,0.00,0,weatherlink.com 1.10,2013-12-02 05:08:00,
2013-12-01 22:23:00,28.4,16.0,30.57,SW,215,6.0,6.0,61,0.00,,,0.00,0,weatherlink.com 1.10,2013-12-02 05:23:00,
2013-12-01 22:38:00,28.2,17.0,30.57,SSE,157,1.0,4.0,62,0.00,,,0.00,0,weatherlink.com 1.10,2013-12-02 05:38:00,
2013-12-01 22:53:00,28.1,16.0,30.58,SW,224,5.0,6.0,62,0.00,,,0.00,0,weatherlink.com 1.10,2013-12-02 05:53:00,
2013-12-01 23:08:00,28.1,16.0,30.58,SSW,192,1.0,5.0,62,0.00,,,0.00,0,weatherlink.com 1.10,2013-12-02 06:08:00,
2013-12-01 23:23:00,28.3,16.0,30.58,West,259,0.0,5.0,60,0.00,,,0.00,0,weatherlink.com 1.10,2013-12-02 06:23:00,
2013-12-01 23:38:00,28.6,16.0,30.58,West,261,0.0,6.0,60,0.00,,,0.00,0,weatherlink.com 1.10,2013-12-02 06:38:00,
2013-12-01 23:53:00,28.8,16.0,30.57,SSE,150,2.0,7.0,58,0.00,,,0.00,0,weatherlink.com 1.10,2013-12-02 06:53:00,